sensor_id;sensor_type;location;lat;lon;timestamp;pressure;altitude;pressure_sealevel;temperature;humidity
20983;BME280;10650;51.528;6.748;2023-04-07T00:01:27;101179.34;;;9.98;90.72
20983;BME280;10650;51.528;6.748;2023-04-07T00:03:55;101182.00;;;9.96;91.10
20983;BME280;10650;51.528;6.748;2023-04-07T00:06:24;101181.13;;;9.96;91.37
20983;BME280;10650;51.528;6.748;2023-04-07T00:08:52;101178.47;;;9.96;91.74
20983;BME280;10650;51.528;6.748;2023-04-07T00:11:20;101185.56;;;9.95;91.62
20983;BME280;10650;51.528;6.748;2023-04-07T00:13:48;101184.66;;;9.96;92.29
20983;BME280;10650;51.528;6.748;2023-04-07T00:16:17;101176.66;;;9.93;91.91
20983;BME280;10650;51.528;6.748;2023-04-07T00:18:45;101182.88;;;9.92;92.14
20983;BME280;10650;51.528;6.748;2023-04-07T00:21:13;101179.34;;;9.90;92.27
20983;BME280;10650;51.528;6.748;2023-04-07T00:23:41;101182.88;;;9.95;91.87
20983;BME280;10650;51.528;6.748;2023-04-07T00:26:09;101184.66;;;9.96;91.87
20983;BME280;10650;51.528;6.748;2023-04-07T00:28:36;101190.88;;;9.97;92.37
20983;BME280;10650;51.528;6.748;2023-04-07T00:31:04;101188.22;;;9.98;92.26
20983;BME280;10650;51.528;6.748;2023-04-07T00:33:33;101187.34;;;9.99;92.77
20983;BME280;10650;51.528;6.748;2023-04-07T00:36:01;101180.22;;;9.97;92.84
20983;BME280;10650;51.528;6.748;2023-04-07T00:38:29;101189.13;;;9.99;93.21
20983;BME280;10650;51.528;6.748;2023-04-07T00:40:57;101182.88;;;10.00;93.39
20983;BME280;10650;51.528;6.748;2023-04-07T00:43:25;101178.44;;;10.03;93.92
20983;BME280;10650;51.528;6.748;2023-04-07T00:45:53;101182.00;;;10.05;93.41
20983;BME280;10650;51.528;6.748;2023-04-07T00:48:21;101173.09;;;10.05;93.55
20983;BME280;10650;51.528;6.748;2023-04-07T00:50:50;101180.22;;;10.08;93.51
20983;BME280;10650;51.528;6.748;2023-04-07T00:53:18;101174.88;;;10.09;93.25
20983;BME280;10650;51.528;6.748;2023-04-07T00:55:46;101170.44;;;10.10;93.38
20983;BME280;10650;51.528;6.748;2023-04-07T00:58:14;101168.66;;;10.09;93.14
20983;BME280;10650;51.528;6.748;2023-04-07T01:00:48;101175.75;;;10.11;93.31
20983;BME280;10650;51.528;6.748;2023-04-07T01:03:18;101171.34;;;10.12;93.04
20983;BME280;10650;51.528;6.748;2023-04-07T01:05:54;101166.88;;;10.08;93.39
20983;BME280;10650;51.528;6.748;2023-04-07T01:08:28;101165.97;;;10.04;93.26
20983;BME280;10650;51.528;6.748;2023-04-07T01:11:01;101165.09;;;10.00;93.55
20983;BME280;10650;51.528;6.748;2023-04-07T01:13:35;101168.66;;;9.99;94.23
20983;BME280;10650;51.528;6.748;2023-04-07T01:16:10;101170.44;;;10.00;93.76
20983;BME280;10650;51.528;6.748;2023-04-07T01:18:38;101167.78;;;10.02;94.09
20983;BME280;10650;51.528;6.748;2023-04-07T01:21:10;101167.78;;;10.02;94.01
20983;BME280;10650;51.528;6.748;2023-04-07T01:23:51;101172.19;;;10.01;93.93
20983;BME280;10650;51.528;6.748;2023-04-07T01:26:25;101172.19;;;10.00;94.14
20983;BME280;10650;51.528;6.748;2023-04-07T01:31:45;101171.31;;;10.02;94.58
20983;BME280;10650;51.528;6.748;2023-04-07T01:34:16;101168.66;;;10.07;95.04
20983;BME280;10650;51.528;6.748;2023-04-07T01:36:45;101163.31;;;10.07;95.00
20983;BME280;10650;51.528;6.748;2023-04-07T01:39:14;101172.22;;;10.06;95.18
20983;BME280;10650;51.528;6.748;2023-04-07T01:41:43;101172.19;;;10.01;95.24
20983;BME280;10650;51.528;6.748;2023-04-07T01:44:12;101166.88;;;10.06;95.25
20983;BME280;10650;51.528;6.748;2023-04-07T01:46:40;101166.00;;;10.09;95.43
20983;BME280;10650;51.528;6.748;2023-04-07T01:49:10;101166.88;;;10.09;95.42
20983;BME280;10650;51.528;6.748;2023-04-07T01:51:39;101167.75;;;10.10;95.83
20983;BME280;10650;51.528;6.748;2023-04-07T01:54:08;101167.75;;;10.13;95.51
20983;BME280;10650;51.528;6.748;2023-04-07T01:56:36;101166.00;;;10.13;95.66
20983;BME280;10650;51.528;6.748;2023-04-07T01:59:03;101165.13;;;10.16;95.81
20983;BME280;10650;51.528;6.748;2023-04-07T02:01:31;101168.66;;;10.18;95.72
20983;BME280;10650;51.528;6.748;2023-04-07T02:04:05;101170.41;;;10.13;95.41
20983;BME280;10650;51.528;6.748;2023-04-07T02:06:41;101172.22;;;10.12;95.69
20983;BME280;10650;51.528;6.748;2023-04-07T02:09:10;101169.53;;;10.12;95.90
20983;BME280;10650;51.528;6.748;2023-04-07T02:11:41;101174.88;;;10.12;95.69
20983;BME280;10650;51.528;6.748;2023-04-07T02:14:11;101169.56;;;10.08;95.72
20983;BME280;10650;51.528;6.748;2023-04-07T02:16:41;101167.75;;;10.10;95.57
20983;BME280;10650;51.528;6.748;2023-04-07T02:19:12;101164.22;;;10.04;95.83
20983;BME280;10650;51.528;6.748;2023-04-07T02:21:43;101162.44;;;10.02;96.33
20983;BME280;10650;51.528;6.748;2023-04-07T02:24:12;101165.97;;;10.05;96.17
20983;BME280;10650;51.528;6.748;2023-04-07T02:26:41;101176.66;;;10.05;96.12
20983;BME280;10650;51.528;6.748;2023-04-07T02:29:09;101166.88;;;10.08;96.80
20983;BME280;10650;51.528;6.748;2023-04-07T02:31:37;101174.00;;;10.10;96.73
20983;BME280;10650;51.528;6.748;2023-04-07T02:34:05;101173.09;;;10.08;96.11
20983;BME280;10650;51.528;6.748;2023-04-07T02:36:32;101174.88;;;10.09;96.46
20983;BME280;10650;51.528;6.748;2023-04-07T02:39:02;101181.09;;;10.11;96.38
20983;BME280;10650;51.528;6.748;2023-04-07T02:41:30;101168.66;;;10.13;96.54
20983;BME280;10650;51.528;6.748;2023-04-07T02:43:58;101175.75;;;10.14;96.25
20983;BME280;10650;51.528;6.748;2023-04-07T02:46:26;101182.91;;;10.12;95.90
20983;BME280;10650;51.528;6.748;2023-04-07T02:48:54;101174.88;;;10.14;95.78
20983;BME280;10650;51.528;6.748;2023-04-07T02:51:21;101186.47;;;10.17;96.48
20983;BME280;10650;51.528;6.748;2023-04-07T02:53:49;101175.78;;;10.19;95.80
20983;BME280;10650;51.528;6.748;2023-04-07T02:56:18;101182.88;;;10.20;95.62
20983;BME280;10650;51.528;6.748;2023-04-07T02:58:46;101188.22;;;10.18;95.81
20983;BME280;10650;51.528;6.748;2023-04-07T03:01:14;101196.25;;;10.12;96.08
20983;BME280;10650;51.528;6.748;2023-04-07T03:03:41;101182.03;;;10.10;95.92
20983;BME280;10650;51.528;6.748;2023-04-07T03:06:10;101184.66;;;10.04;96.17
20983;BME280;10650;51.528;6.748;2023-04-07T03:08:38;101188.25;;;10.06;95.97
20983;BME280;10650;51.528;6.748;2023-04-07T03:11:07;101184.66;;;10.04;96.41
20983;BME280;10650;51.528;6.748;2023-04-07T03:13:36;101190.91;;;10.04;96.37
20983;BME280;10650;51.528;6.748;2023-04-07T03:16:04;101185.53;;;9.98;95.90
20983;BME280;10650;51.528;6.748;2023-04-07T03:18:32;101189.13;;;9.99;96.88
20983;BME280;10650;51.528;6.748;2023-04-07T03:20:59;101193.56;;;9.98;96.59
20983;BME280;10650;51.528;6.748;2023-04-07T03:23:27;101183.78;;;9.99;96.76
20983;BME280;10650;51.528;6.748;2023-04-07T03:25:55;101192.69;;;10.01;96.84
20983;BME280;10650;51.528;6.748;2023-04-07T03:28:24;101191.78;;;10.02;96.64
20983;BME280;10650;51.528;6.748;2023-04-07T03:30:53;101193.59;;;10.04;96.80
20983;BME280;10650;51.528;6.748;2023-04-07T03:33:21;101189.13;;;10.00;95.97
20983;BME280;10650;51.528;6.748;2023-04-07T03:35:48;101193.56;;;10.00;96.67
20983;BME280;10650;51.528;6.748;2023-04-07T03:38:16;101202.47;;;9.96;96.50
20983;BME280;10650;51.528;6.748;2023-04-07T03:40:44;101193.56;;;9.94;96.59
20983;BME280;10650;51.528;6.748;2023-04-07T03:43:12;101194.47;;;9.96;96.55
20983;BME280;10650;51.528;6.748;2023-04-07T03:45:41;101196.22;;;10.00;95.93
20983;BME280;10650;51.528;6.748;2023-04-07T03:48:10;101200.69;;;9.92;96.12
20983;BME280;10650;51.528;6.748;2023-04-07T03:50:38;101195.34;;;9.93;96.34
20983;BME280;10650;51.528;6.748;2023-04-07T03:53:07;101198.03;;;9.90;95.78
20983;BME280;10650;51.528;6.748;2023-04-07T03:55:36;101195.34;;;9.95;96.40
20983;BME280;10650;51.528;6.748;2023-04-07T03:58:05;101193.56;;;9.92;96.40
20983;BME280;10650;51.528;6.748;2023-04-07T04:00:33;101206.91;;;9.86;96.49
20983;BME280;10650;51.528;6.748;2023-04-07T04:03:01;101206.00;;;9.81;96.12
20983;BME280;10650;51.528;6.748;2023-04-07T04:05:30;101212.25;;;9.86;96.54
20983;BME280;10650;51.528;6.748;2023-04-07T04:07:58;101208.66;;;9.85;96.51
20983;BME280;10650;51.528;6.748;2023-04-07T04:10:26;101211.38;;;9.92;96.44
20983;BME280;10650;51.528;6.748;2023-04-07T04:12:53;101205.16;;;9.97;96.22
20983;BME280;10650;51.528;6.748;2023-04-07T04:15:22;101211.38;;;9.96;95.74
20983;BME280;10650;51.528;6.748;2023-04-07T04:17:50;101223.78;;;9.94;95.66
20983;BME280;10650;51.528;6.748;2023-04-07T04:20:18;101220.25;;;9.91;95.89
20983;BME280;10650;51.528;6.748;2023-04-07T04:22:48;101222.00;;;9.85;95.71
20983;BME280;10650;51.528;6.748;2023-04-07T04:25:17;101219.34;;;9.84;95.52
20983;BME280;10650;51.528;6.748;2023-04-07T04:27:44;101226.47;;;9.83;95.80
20983;BME280;10650;51.528;6.748;2023-04-07T04:30:12;101225.59;;;9.83;95.70
20983;BME280;10650;51.528;6.748;2023-04-07T04:32:40;101221.13;;;9.86;95.90
20983;BME280;10650;51.528;6.748;2023-04-07T04:35:08;101228.25;;;9.89;96.46
20983;BME280;10650;51.528;6.748;2023-04-07T04:37:36;101233.59;;;9.89;95.49
20983;BME280;10650;51.528;6.748;2023-04-07T04:40:06;101230.94;;;9.87;95.51
20983;BME280;10650;51.528;6.748;2023-04-07T04:42:35;101238.06;;;9.89;95.72
20983;BME280;10650;51.528;6.748;2023-04-07T04:45:03;101235.34;;;9.84;95.66
20983;BME280;10650;51.528;6.748;2023-04-07T04:47:32;101240.69;;;9.84;95.66
20983;BME280;10650;51.528;6.748;2023-04-07T04:49:59;101245.16;;;9.86;95.44
20983;BME280;10650;51.528;6.748;2023-04-07T04:52:27;101248.72;;;9.89;95.66
20983;BME280;10650;51.528;6.748;2023-04-07T04:54:55;101241.59;;;9.87;95.14
20983;BME280;10650;51.528;6.748;2023-04-07T04:57:24;101244.28;;;9.84;95.07
20983;BME280;10650;51.528;6.748;2023-04-07T04:59:52;101254.03;;;9.78;95.22
20983;BME280;10650;51.528;6.748;2023-04-07T05:02:20;101254.03;;;9.78;95.44
20983;BME280;10650;51.528;6.748;2023-04-07T05:04:48;101257.56;;;9.74;95.39
20983;BME280;10650;51.528;6.748;2023-04-07T05:07:16;101259.38;;;9.78;95.73
20983;BME280;10650;51.528;6.748;2023-04-07T05:09:44;101256.69;;;9.84;95.82
20983;BME280;10650;51.528;6.748;2023-04-07T05:12:11;101258.50;;;9.82;95.58
20983;BME280;10650;51.528;6.748;2023-04-07T05:14:40;101264.72;;;9.81;95.45
20983;BME280;10650;51.528;6.748;2023-04-07T05:17:08;101259.38;;;9.81;94.98
20983;BME280;10650;51.528;6.748;2023-04-07T05:19:36;101270.03;;;9.76;95.43
20983;BME280;10650;51.528;6.748;2023-04-07T05:22:03;101264.72;;;9.82;94.95
20983;BME280;10650;51.528;6.748;2023-04-07T05:24:33;101266.50;;;9.83;95.19
20983;BME280;10650;51.528;6.748;2023-04-07T05:27:03;101275.38;;;9.87;94.95
20983;BME280;10650;51.528;6.748;2023-04-07T05:29:38;101273.63;;;9.86;95.00
20983;BME280;10650;51.528;6.748;2023-04-07T05:32:07;101283.41;;;9.89;95.45
20983;BME280;10650;51.528;6.748;2023-04-07T05:34:37;101272.72;;;9.85;95.17
20983;BME280;10650;51.528;6.748;2023-04-07T05:37:06;101275.41;;;9.89;95.59
20983;BME280;10650;51.528;6.748;2023-04-07T05:39:39;101282.50;;;9.91;95.64
20983;BME280;10650;51.528;6.748;2023-04-07T05:42:06;101279.84;;;9.88;95.20
20983;BME280;10650;51.528;6.748;2023-04-07T05:44:34;101288.75;;;9.89;94.90
20983;BME280;10650;51.528;6.748;2023-04-07T05:47:10;101281.63;;;9.84;94.85
20983;BME280;10650;51.528;6.748;2023-04-07T05:49:38;101285.16;;;9.82;94.42
20983;BME280;10650;51.528;6.748;2023-04-07T05:52:14;101287.84;;;9.83;95.24
20983;BME280;10650;51.528;6.748;2023-04-07T05:54:42;101283.41;;;9.89;95.08
20983;BME280;10650;51.528;6.748;2023-04-07T05:57:10;101286.09;;;9.93;94.97
20983;BME280;10650;51.528;6.748;2023-04-07T05:59:37;101291.44;;;9.96;94.43
20983;BME280;10650;51.528;6.748;2023-04-07T06:02:06;101297.69;;;10.03;94.41
20983;BME280;10650;51.528;6.748;2023-04-07T06:04:34;101297.66;;;9.94;93.85
20983;BME280;10650;51.528;6.748;2023-04-07T06:07:04;101297.66;;;9.97;94.52
20983;BME280;10650;51.528;6.748;2023-04-07T06:09:32;101303.00;;;10.00;94.06
20983;BME280;10650;51.528;6.748;2023-04-07T06:12:01;101297.66;;;9.97;93.78
20983;BME280;10650;51.528;6.748;2023-04-07T06:14:30;101303.00;;;10.00;93.85
20983;BME280;10650;51.528;6.748;2023-04-07T06:16:58;101315.47;;;9.99;94.10
20983;BME280;10650;51.528;6.748;2023-04-07T06:19:28;101310.13;;;10.04;93.87
20983;BME280;10650;51.528;6.748;2023-04-07T06:21:56;101311.91;;;10.10;94.31
20983;BME280;10650;51.528;6.748;2023-04-07T06:24:24;101311.91;;;10.14;93.43
20983;BME280;10650;51.528;6.748;2023-04-07T06:26:53;101307.50;;;10.15;93.71
20983;BME280;10650;51.528;6.748;2023-04-07T06:29:21;101318.19;;;10.18;93.63
20983;BME280;10650;51.528;6.748;2023-04-07T06:31:49;101318.16;;;10.15;93.73
20983;BME280;10650;51.528;6.748;2023-04-07T06:34:17;101316.38;;;10.17;93.38
20983;BME280;10650;51.528;6.748;2023-04-07T06:36:46;101319.09;;;10.21;94.09
20983;BME280;10650;51.528;6.748;2023-04-07T06:39:15;101315.50;;;10.19;93.85
20983;BME280;10650;51.528;6.748;2023-04-07T06:41:43;101319.09;;;10.21;93.28
20983;BME280;10650;51.528;6.748;2023-04-07T06:44:12;101326.19;;;10.24;93.42
20983;BME280;10650;51.528;6.748;2023-04-07T06:46:40;101335.09;;;10.23;93.14
20983;BME280;10650;51.528;6.748;2023-04-07T06:49:08;101330.66;;;10.24;93.42
20983;BME280;10650;51.528;6.748;2023-04-07T06:51:37;101334.19;;;10.19;93.07
20983;BME280;10650;51.528;6.748;2023-04-07T06:54:06;101336.88;;;10.22;93.24
20983;BME280;10650;51.528;6.748;2023-04-07T06:56:39;101337.78;;;10.25;92.56
20983;BME280;10650;51.528;6.748;2023-04-07T06:59:07;101344.00;;;10.27;92.73
20983;BME280;10650;51.528;6.748;2023-04-07T07:01:35;101338.66;;;10.30;92.85
20983;BME280;10650;51.528;6.748;2023-04-07T07:04:05;101344.94;;;10.35;93.35
20983;BME280;10650;51.528;6.748;2023-04-07T07:06:34;101349.41;;;10.36;92.86
20983;BME280;10650;51.528;6.748;2023-04-07T07:09:02;101346.72;;;10.42;93.06
20983;BME280;10650;51.528;6.748;2023-04-07T07:11:31;101355.63;;;10.43;92.35
20983;BME280;10650;51.528;6.748;2023-04-07T07:13:59;101350.31;;;10.49;92.86
20983;BME280;10650;51.528;6.748;2023-04-07T07:16:27;101347.66;;;10.50;92.25
20983;BME280;10650;51.528;6.748;2023-04-07T07:18:55;101353.00;;;10.52;91.96
20983;BME280;10650;51.528;6.748;2023-04-07T07:21:22;101349.44;;;10.54;91.96
20983;BME280;10650;51.528;6.748;2023-04-07T07:23:52;101350.31;;;10.58;91.94
20983;BME280;10650;51.528;6.748;2023-04-07T07:26:20;101350.31;;;10.55;91.52
20983;BME280;10650;51.528;6.748;2023-04-07T07:28:49;101357.44;;;10.59;91.45
20983;BME280;10650;51.528;6.748;2023-04-07T07:31:17;101361.00;;;10.58;91.71
20983;BME280;10650;51.528;6.748;2023-04-07T07:33:45;101356.56;;;10.68;91.73
20983;BME280;10650;51.528;6.748;2023-04-07T07:36:14;101362.81;;;10.76;91.64
20983;BME280;10650;51.528;6.748;2023-04-07T07:38:42;101366.34;;;10.81;91.49
20983;BME280;10650;51.528;6.748;2023-04-07T07:41:10;101367.22;;;10.77;91.13
20983;BME280;10650;51.528;6.748;2023-04-07T07:43:38;101374.38;;;10.80;90.49
20983;BME280;10650;51.528;6.748;2023-04-07T07:46:11;101366.34;;;10.81;91.22
20983;BME280;10650;51.528;6.748;2023-04-07T07:48:39;101369.94;;;10.83;91.20
20983;BME280;10650;51.528;6.748;2023-04-07T07:51:07;101369.91;;;10.80;90.54
20983;BME280;10650;51.528;6.748;2023-04-07T07:53:35;101374.38;;;10.78;90.65
20983;BME280;10650;51.528;6.748;2023-04-07T07:56:03;101384.19;;;10.79;90.69
20983;BME280;10650;51.528;6.748;2023-04-07T07:58:31;101380.59;;;10.68;90.53
20983;BME280;10650;51.528;6.748;2023-04-07T08:00:59;101385.94;;;10.62;91.10
20983;BME280;10650;51.528;6.748;2023-04-07T08:03:29;101386.84;;;10.64;91.63
20983;BME280;10650;51.528;6.748;2023-04-07T08:05:57;101393.06;;;10.66;91.75
20983;BME280;10650;51.528;6.748;2023-04-07T08:08:25;101386.84;;;10.67;91.11
20983;BME280;10650;51.528;6.748;2023-04-07T08:10:53;101394.84;;;10.67;91.24
20983;BME280;10650;51.528;6.748;2023-04-07T08:13:21;101390.38;;;10.60;90.88
20983;BME280;10650;51.528;6.748;2023-04-07T08:15:49;101398.41;;;10.53;91.42
20983;BME280;10650;51.528;6.748;2023-04-07T08:18:19;101395.72;;;10.50;91.35
20983;BME280;10650;51.528;6.748;2023-04-07T08:20:50;101398.41;;;10.55;91.91
20983;BME280;10650;51.528;6.748;2023-04-07T08:23:18;101402.88;;;10.54;91.80
20983;BME280;10650;51.528;6.748;2023-04-07T08:25:46;101398.41;;;10.64;92.35
20983;BME280;10650;51.528;6.748;2023-04-07T08:28:14;101406.44;;;10.70;91.66
20983;BME280;10650;51.528;6.748;2023-04-07T08:30:42;101407.31;;;10.66;91.82
20983;BME280;10650;51.528;6.748;2023-04-07T08:33:10;101403.75;;;10.64;91.52
20983;BME280;10650;51.528;6.748;2023-04-07T08:35:40;101418.03;;;10.65;91.93
20983;BME280;10650;51.528;6.748;2023-04-07T08:38:10;101412.69;;;10.65;92.25
20983;BME280;10650;51.528;6.748;2023-04-07T08:40:38;101421.56;;;10.67;91.98
20983;BME280;10650;51.528;6.748;2023-04-07T08:43:08;101416.22;;;10.65;91.77
20983;BME280;10650;51.528;6.748;2023-04-07T08:45:38;101424.25;;;10.64;91.34
20983;BME280;10650;51.528;6.748;2023-04-07T08:48:13;101432.25;;;10.56;91.77
20983;BME280;10650;51.528;6.748;2023-04-07T08:50:44;101426.00;;;10.55;92.18
20983;BME280;10650;51.528;6.748;2023-04-07T08:53:17;101431.34;;;10.54;92.07
20983;BME280;10650;51.528;6.748;2023-04-07T08:55:45;101429.59;;;10.54;92.11
20983;BME280;10650;51.528;6.748;2023-04-07T08:58:14;101433.13;;;10.52;92.47
20983;BME280;10650;51.528;6.748;2023-04-07T09:00:43;101434.88;;;10.51;92.54
20983;BME280;10650;51.528;6.748;2023-04-07T09:03:15;101442.91;;;10.51;92.73
20983;BME280;10650;51.528;6.748;2023-04-07T09:05:43;101438.47;;;10.61;93.08
20983;BME280;10650;51.528;6.748;2023-04-07T09:08:11;101437.59;;;10.67;92.84
20983;BME280;10650;51.528;6.748;2023-04-07T09:10:41;101447.41;;;10.62;93.02
20983;BME280;10650;51.528;6.748;2023-04-07T09:13:09;101446.50;;;10.55;92.98
20983;BME280;10650;51.528;6.748;2023-04-07T09:15:36;101442.91;;;10.47;93.05
20983;BME280;10650;51.528;6.748;2023-04-07T09:18:05;101455.38;;;10.51;92.78
20983;BME280;10650;51.528;6.748;2023-04-07T09:20:56;101453.63;;;10.56;93.14
20983;BME280;10650;51.528;6.748;2023-04-07T09:23:29;101450.97;;;10.62;93.16
20983;BME280;10650;51.528;6.748;2023-04-07T09:26:00;101453.63;;;10.64;92.53
20983;BME280;10650;51.528;6.748;2023-04-07T09:28:39;101455.44;;;10.79;93.08
20983;BME280;10650;51.528;6.748;2023-04-07T09:31:07;101449.22;;;10.90;92.73
20983;BME280;10650;51.528;6.748;2023-04-07T09:33:36;101452.81;;;11.02;92.35
20983;BME280;10650;51.528;6.748;2023-04-07T09:36:05;101461.69;;;11.10;92.16
20983;BME280;10650;51.528;6.748;2023-04-07T09:38:34;101455.47;;;11.06;91.92
20983;BME280;10650;51.528;6.748;2023-04-07T09:41:07;101458.16;;;11.05;91.01
20983;BME280;10650;51.528;6.748;2023-04-07T09:43:37;101458.13;;;10.97;90.08
20983;BME280;10650;51.528;6.748;2023-04-07T09:46:10;101454.56;;;11.00;90.47
20983;BME280;10650;51.528;6.748;2023-04-07T09:48:38;101458.16;;;11.11;90.83
20983;BME280;10650;51.528;6.748;2023-04-07T09:51:09;101464.38;;;11.02;89.93
20983;BME280;10650;51.528;6.748;2023-04-07T09:53:44;101467.94;;;10.95;89.57
20983;BME280;10650;51.528;6.748;2023-04-07T09:56:16;101467.06;;;10.98;90.59
20983;BME280;10650;51.528;6.748;2023-04-07T09:58:45;101467.06;;;10.99;90.26
20983;BME280;10650;51.528;6.748;2023-04-07T10:01:15;101463.50;;;11.05;89.91
20983;BME280;10650;51.528;6.748;2023-04-07T10:03:44;101458.16;;;11.11;90.11
20983;BME280;10650;51.528;6.748;2023-04-07T10:06:14;101461.69;;;11.13;90.04
20983;BME280;10650;51.528;6.748;2023-04-07T10:08:42;101459.94;;;11.32;90.72
20983;BME280;10650;51.528;6.748;2023-04-07T10:11:10;101459.94;;;11.48;89.77
20983;BME280;10650;51.528;6.748;2023-04-07T10:13:39;101468.81;;;11.59;89.56
20983;BME280;10650;51.528;6.748;2023-04-07T10:16:08;101462.53;;;11.66;88.27
20983;BME280;10650;51.528;6.748;2023-04-07T10:18:37;101458.09;;;11.67;87.88
20983;BME280;10650;51.528;6.748;2023-04-07T10:21:06;101461.69;;;11.55;86.36
20983;BME280;10650;51.528;6.748;2023-04-07T10:23:47;101478.66;;;11.34;86.78
20983;BME280;10650;51.528;6.748;2023-04-07T10:26:22;101480.44;;;11.39;88.09
20983;BME280;10650;51.528;6.748;2023-04-07T10:28:59;101486.66;;;11.43;87.85
20983;BME280;10650;51.528;6.748;2023-04-07T10:31:29;101477.75;;;11.41;87.38
20983;BME280;10650;51.528;6.748;2023-04-07T10:33:58;101484.00;;;11.38;87.30
20983;BME280;10650;51.528;6.748;2023-04-07T10:36:29;101483.13;;;11.38;86.49
20983;BME280;10650;51.528;6.748;2023-04-07T10:39:22;101484.91;;;11.42;86.99
20983;BME280;10650;51.528;6.748;2023-04-07T10:41:51;101487.56;;;11.51;86.08
20983;BME280;10650;51.528;6.748;2023-04-07T10:44:49;101489.34;;;11.54;86.11
20983;BME280;10650;51.528;6.748;2023-04-07T10:47:18;101492.03;;;11.49;85.86
20983;BME280;10650;51.528;6.748;2023-04-07T10:50:13;101491.13;;;11.63;86.20
20983;BME280;10650;51.528;6.748;2023-04-07T10:52:42;101491.09;;;11.72;85.65
20983;BME280;10650;51.528;6.748;2023-04-07T10:55:31;101491.97;;;11.86;86.05
20983;BME280;10650;51.528;6.748;2023-04-07T10:58:19;101499.09;;;12.00;85.60
20983;BME280;10650;51.528;6.748;2023-04-07T11:01:19;101494.63;;;12.06;84.27
20983;BME280;10650;51.528;6.748;2023-04-07T11:03:59;101492.78;;;12.25;85.77
20983;BME280;10650;51.528;6.748;2023-04-07T11:06:27;101499.91;;;12.31;83.81
20983;BME280;10650;51.528;6.748;2023-04-07T11:08:56;101502.63;;;12.05;81.72
20983;BME280;10650;51.528;6.748;2023-04-07T11:11:36;101500.88;;;12.02;82.33
20983;BME280;10650;51.528;6.748;2023-04-07T11:14:05;101506.22;;;12.05;81.92
20983;BME280;10650;51.528;6.748;2023-04-07T11:16:37;101497.28;;;12.05;81.97
20983;BME280;10650;51.528;6.748;2023-04-07T11:19:05;101514.25;;;12.11;81.81
20983;BME280;10650;51.528;6.748;2023-04-07T11:21:33;101507.09;;;12.15;80.89
20983;BME280;10650;51.528;6.748;2023-04-07T11:24:02;101499.91;;;12.22;80.84
20983;BME280;10650;51.528;6.748;2023-04-07T11:26:37;101509.75;;;12.21;80.68
20983;BME280;10650;51.528;6.748;2023-04-07T11:29:05;101505.31;;;12.13;80.03
20983;BME280;10650;51.528;6.748;2023-04-07T11:31:33;101498.16;;;12.11;80.87
20983;BME280;10650;51.528;6.748;2023-04-07T11:34:03;101518.66;;;12.20;82.04
20983;BME280;10650;51.528;6.748;2023-04-07T11:36:32;101509.75;;;12.20;82.51
20983;BME280;10650;51.528;6.748;2023-04-07T11:39:02;101516.00;;;12.20;82.34
20983;BME280;10650;51.528;6.748;2023-04-07T11:41:31;101516.88;;;12.25;82.96
20983;BME280;10650;51.528;6.748;2023-04-07T11:44:06;101514.16;;;12.32;83.33
20983;BME280;10650;51.528;6.748;2023-04-07T11:46:34;101515.06;;;12.26;82.84
20983;BME280;10650;51.528;6.748;2023-04-07T11:49:11;101519.56;;;12.15;82.67
20983;BME280;10650;51.528;6.748;2023-04-07T11:51:41;101514.22;;;12.18;83.47
20983;BME280;10650;51.528;6.748;2023-04-07T11:54:09;101524.03;;;12.22;83.50
20983;BME280;10650;51.528;6.748;2023-04-07T11:56:42;101524.94;;;12.24;82.89
20983;BME280;10650;51.528;6.748;2023-04-07T11:59:18;101530.31;;;12.19;83.38
20983;BME280;10650;51.528;6.748;2023-04-07T12:01:48;101536.56;;;12.04;82.63
20983;BME280;10650;51.528;6.748;2023-04-07T12:04:20;101527.63;;;11.93;82.92
20983;BME280;10650;51.528;6.748;2023-04-07T12:06:48;101541.06;;;11.82;82.62
20983;BME280;10650;51.528;6.748;2023-04-07T12:09:28;101547.31;;;11.78;83.45
20983;BME280;10650;51.528;6.748;2023-04-07T12:11:57;101540.19;;;11.71;83.60
20983;BME280;10650;51.528;6.748;2023-04-07T12:14:25;101544.63;;;11.72;84.55
20983;BME280;10650;51.528;6.748;2023-04-07T12:16:54;101547.31;;;11.78;84.53
20983;BME280;10650;51.528;6.748;2023-04-07T12:19:27;101556.22;;;11.74;84.33
20983;BME280;10650;51.528;6.748;2023-04-07T12:21:55;101545.50;;;11.91;84.68
20983;BME280;10650;51.528;6.748;2023-04-07T12:24:24;101549.97;;;12.03;84.77
20983;BME280;10650;51.528;6.748;2023-04-07T12:26:52;101552.66;;;12.03;83.25
20983;BME280;10650;51.528;6.748;2023-04-07T12:29:20;101551.78;;;12.01;82.53
20983;BME280;10650;51.528;6.748;2023-04-07T12:31:48;101555.31;;;12.04;83.46
20983;BME280;10650;51.528;6.748;2023-04-07T12:34:17;101552.63;;;12.06;83.60
20983;BME280;10650;51.528;6.748;2023-04-07T12:36:49;101557.94;;;12.24;84.62
20983;BME280;10650;51.528;6.748;2023-04-07T12:39:23;101563.28;;;12.40;85.05
20983;BME280;10650;51.528;6.748;2023-04-07T12:41:51;101562.34;;;12.47;84.53
20983;BME280;10650;51.528;6.748;2023-04-07T12:44:19;101568.56;;;12.51;84.78
20983;BME280;10650;51.528;6.748;2023-04-07T12:46:47;101565.03;;;12.47;84.89
20983;BME280;10650;51.528;6.748;2023-04-07T12:49:15;101564.16;;;12.39;84.32
20983;BME280;10650;51.528;6.748;2023-04-07T12:51:43;101565.94;;;12.41;84.28
20983;BME280;10650;51.528;6.748;2023-04-07T12:54:12;101568.63;;;12.41;83.70
20983;BME280;10650;51.528;6.748;2023-04-07T12:56:40;101572.16;;;12.43;84.07
20983;BME280;10650;51.528;6.748;2023-04-07T12:59:09;101576.63;;;12.48;84.41
20983;BME280;10650;51.528;6.748;2023-04-07T13:01:37;101573.03;;;12.55;85.93
20983;BME280;10650;51.528;6.748;2023-04-07T13:04:08;101565.81;;;12.68;86.44
20983;BME280;10650;51.528;6.748;2023-04-07T13:06:36;101564.94;;;12.67;85.05
20983;BME280;10650;51.528;6.748;2023-04-07T13:09:07;101569.41;;;12.65;84.47